< < Back
Terminal Aerodrome Forecast


Current Version              Previous Versions:   1  2  3  4  5  6  7  8  9  

Terminal Aerodrome Forecast

228
FTUS42 KFFC 210700 AAA
TAFATL
TAF AMD
KATL 210730Z 2108/2212 09005KT P6SM SCT250
     FM211500 17006KT P6SM FEW050 SCT120
     FM211700 24006KT P6SM FEW050 SCT120
     FM220300 27006KT P6SM SCT050 BKN120=



Latest METAR

028
SAUS70 KWBC 211400 RRD
MTRATL
METAR KATL 211352Z 11006KT 10SM BKN250 17/06 A3019 RMK AO2 SLP219
T01670056


USA.gov is the U.S. government's official web portal to all federal, state and local government web resources and services.